createdAt,value
2018-02-06T00:00:20.620Z,20.90
2018-02-06T00:02:51.470Z,20.67
2018-02-06T00:05:22.324Z,23.90
2018-02-06T00:07:53.120Z,26.93
2018-02-06T00:10:23.908Z,20.70
2018-02-06T00:12:54.672Z,20.17
2018-02-06T00:15:25.461Z,20.37
2018-02-06T00:17:56.208Z,24.77
2018-02-06T00:20:27.042Z,22.07
2018-02-06T00:22:57.881Z,29.23
2018-02-06T00:25:28.656Z,23.97
2018-02-06T00:27:59.528Z,30.33
2018-02-06T00:30:30.310Z,29.60
2018-02-06T00:33:01.068Z,25.13
2018-02-06T00:35:31.852Z,27.07
2018-02-06T00:38:02.607Z,24.07
2018-02-06T00:40:33.368Z,27.00
2018-02-06T00:43:04.164Z,29.20
2018-02-06T00:45:35.056Z,28.70
2018-02-06T00:48:05.840Z,31.97
2018-02-06T00:50:36.613Z,28.40
2018-02-06T00:53:07.480Z,28.43
2018-02-06T00:55:38.259Z,30.23
2018-02-06T00:58:09.014Z,32.87
2018-02-06T01:00:39.773Z,27.83
2018-02-06T01:03:10.644Z,30.63
2018-02-06T01:05:41.413Z,33.67
2018-02-06T01:08:12.165Z,30.00
2018-02-06T01:10:42.920Z,35.03
2018-02-06T01:13:13.675Z,33.07
2018-02-06T01:15:44.491Z,32.27
2018-02-06T01:18:15.228Z,29.60
2018-02-06T01:20:45.959Z,26.10
2018-02-06T01:23:16.688Z,31.57
2018-02-06T01:25:47.552Z,29.77
2018-02-06T01:28:18.308Z,31.30
2018-02-06T01:30:49.332Z,26.33
2018-02-06T01:33:20.068Z,30.10
2018-02-06T01:35:50.813Z,26.73
2018-02-06T01:38:21.576Z,31.13
2018-02-06T01:40:52.351Z,31.07
2018-02-06T01:43:23.195Z,30.87
2018-02-06T01:45:53.943Z,29.40
2018-02-06T01:48:24.707Z,29.97
2018-02-06T01:50:55.484Z,38.93
2018-02-06T01:53:26.258Z,36.27
2018-02-06T01:55:56.984Z,28.20
2018-02-06T01:58:27.933Z,30.97
2018-02-06T02:00:58.720Z,28.00
2018-02-06T02:03:29.470Z,29.77
2018-02-06T02:06:00.202Z,32.10
2018-02-06T02:08:30.983Z,29.93
2018-02-06T02:11:01.732Z,31.37
2018-02-06T02:13:32.500Z,28.37
2018-02-06T02:16:03.338Z,31.57
2018-02-06T02:18:34.122Z,36.77
2018-02-06T02:21:04.876Z,28.70
2018-02-06T02:23:35.693Z,27.83
2018-02-06T02:26:06.456Z,33.13
2018-02-06T02:28:37.232Z,26.93
2018-02-06T02:31:07.985Z,32.07
2018-02-06T02:33:38.755Z,29.07
2018-02-06T02:36:09.505Z,29.63
2018-02-06T02:38:40.277Z,33.90
2018-02-06T02:41:11.059Z,28.37
2018-02-06T04:39:20.500Z,25.60
2018-02-06T04:41:51.239Z,24.90
2018-02-06T04:44:22.025Z,26.27
2018-02-06T04:46:52.792Z,27.40
2018-02-06T04:49:23.573Z,23.50
2018-02-06T04:51:54.331Z,28.30
2018-02-06T04:54:25.123Z,29.20
2018-02-06T04:56:55.873Z,23.27
2018-02-06T04:59:26.632Z,22.17
2018-02-06T05:01:57.392Z,27.70
2018-02-06T05:04:28.209Z,32.37
2018-02-06T05:06:58.976Z,26.77
2018-02-06T05:09:29.745Z,30.83
2018-02-06T05:12:00.542Z,24.50
2018-02-06T05:14:31.328Z,34.20
2018-02-06T05:17:02.116Z,29.80
2018-02-06T05:19:32.904Z,29.00
2018-02-06T05:22:03.659Z,29.53
2018-02-06T05:24:34.429Z,29.00
2018-02-06T05:27:05.171Z,26.30
2018-02-06T05:29:35.947Z,28.13
2018-02-06T05:32:06.703Z,24.27
2018-02-06T05:34:37.504Z,24.70
2018-02-06T05:37:08.330Z,23.80
2018-02-06T05:39:39.112Z,24.23
2018-02-06T05:42:09.862Z,21.70
2018-02-06T05:44:40.631Z,25.10
2018-02-06T05:47:11.388Z,24.90
2018-02-06T05:49:42.157Z,26.93
2018-02-06T05:52:12.903Z,28.77
2018-02-06T05:54:43.662Z,26.20
2018-02-06T05:57:14.420Z,22.17
2018-02-06T05:59:45.196Z,25.73
2018-02-06T06:02:15.940Z,24.13
2018-02-06T06:04:46.727Z,21.53
2018-02-06T06:07:17.508Z,26.67
2018-02-06T06:09:48.271Z,22.87
2018-02-06T06:12:19.039Z,29.40
2018-02-06T06:14:50.864Z,25.77
2018-02-06T06:17:21.624Z,27.67
2018-02-06T06:19:52.419Z,32.80
2018-02-06T06:22:23.177Z,32.83
2018-02-06T06:24:53.955Z,27.23
2018-02-06T06:27:24.735Z,28.63
2018-02-06T06:29:55.505Z,29.23
2018-02-06T06:32:26.289Z,29.47
2018-02-06T06:34:57.049Z,27.60
2018-02-06T06:37:27.803Z,25.40
2018-02-06T06:39:58.587Z,28.50
2018-02-06T06:42:29.364Z,29.63
2018-02-06T06:45:00.128Z,30.57
2018-02-06T06:47:39.912Z,27.67
2018-02-06T06:50:10.701Z,23.23
2018-02-06T06:52:41.460Z,30.50
2018-02-06T06:55:12.232Z,28.67
2018-02-06T06:57:42.993Z,29.30
2018-02-06T07:00:13.788Z,29.33
2018-02-06T07:02:44.569Z,29.00
2018-02-06T07:05:16.388Z,27.97
2018-02-06T07:07:47.123Z,32.45
2018-02-06T07:10:17.884Z,30.17
2018-02-06T07:12:48.644Z,33.90
2018-02-06T07:15:19.380Z,28.80
2018-02-06T07:17:50.123Z,34.30
2018-02-06T07:20:20.872Z,32.10
2018-02-06T07:22:51.625Z,28.93
2018-02-06T07:25:22.368Z,27.53
2018-02-06T07:27:53.124Z,33.40
2018-02-06T07:30:23.872Z,30.80
2018-02-06T07:32:54.645Z,34.90
2018-02-06T07:35:25.383Z,31.10
2018-02-06T07:37:56.124Z,28.10
2018-02-06T07:40:26.849Z,28.93
2018-02-06T07:42:57.652Z,25.77
2018-02-06T07:45:28.380Z,28.30
2018-02-06T07:47:59.131Z,27.83
2018-02-06T07:50:30.900Z,33.67
2018-02-06T07:53:01.656Z,27.62
2018-02-06T07:55:32.597Z,27.10
2018-02-06T07:58:03.713Z,24.05
2018-02-06T08:00:34.607Z,30.70
2018-02-06T08:03:05.433Z,30.90
2018-02-06T08:05:36.159Z,25.13
2018-02-06T08:08:06.914Z,28.47
2018-02-06T08:10:37.676Z,29.20
2018-02-06T08:13:08.433Z,26.53
2018-02-06T08:15:39.188Z,30.10
2018-02-06T08:18:09.957Z,23.40
2018-02-06T08:20:40.695Z,27.93
2018-02-06T08:23:11.533Z,24.93
2018-02-06T08:25:42.229Z,28.47
2018-02-06T08:28:13.017Z,28.00
2018-02-06T08:30:43.933Z,29.90
2018-02-06T08:33:14.733Z,28.43
2018-02-06T08:35:45.492Z,27.83
2018-02-06T08:38:16.277Z,24.93
2018-02-06T08:40:47.034Z,21.50
2018-02-06T08:43:17.808Z,20.10
2018-02-06T08:45:48.583Z,18.97
2018-02-06T08:48:19.425Z,14.97
2018-02-06T08:50:50.163Z,22.40
2018-02-06T08:53:22.877Z,19.83
2018-02-06T08:55:53.668Z,16.75
2018-02-06T08:58:25.256Z,17.85
2018-02-06T09:00:56.010Z,16.50
2018-02-06T09:03:26.749Z,15.33
2018-02-06T09:06:12.436Z,17.23
2018-02-06T09:08:43.207Z,16.83
2018-02-06T09:11:13.983Z,16.20
2018-02-06T09:13:44.755Z,22.93
2018-02-06T09:16:15.525Z,16.47
2018-02-06T09:18:46.273Z,15.83
2018-02-06T09:21:17.034Z,18.47
2018-02-06T09:23:47.797Z,14.50
2018-02-06T09:26:18.573Z,17.13
2018-02-06T09:28:49.337Z,16.97
2018-02-06T09:31:20.104Z,17.10
2018-02-06T09:33:50.848Z,17.50
2018-02-06T09:36:21.641Z,15.80
2018-02-06T09:38:52.424Z,13.40
2018-02-06T09:41:23.218Z,15.37
2018-02-06T09:43:53.986Z,17.17
2018-02-06T09:46:24.784Z,17.53
2018-02-06T09:48:55.571Z,16.00
2018-02-06T09:51:26.351Z,18.40
2018-02-06T09:53:57.116Z,19.23
2018-02-06T09:56:27.891Z,17.50
2018-02-06T09:58:58.646Z,17.53
2018-02-06T10:01:29.472Z,18.07
2018-02-06T10:04:00.238Z,14.97
2018-02-06T10:06:31.003Z,18.47
2018-02-06T10:09:01.786Z,14.03
2018-02-06T10:11:32.580Z,15.20
2018-02-06T10:14:03.350Z,15.60
2018-02-06T10:16:34.138Z,16.57
2018-02-06T10:19:04.916Z,19.57
2018-02-06T10:21:35.684Z,19.57
2018-02-06T10:24:06.439Z,16.93
2018-02-06T10:26:37.220Z,16.23
2018-02-06T10:29:15.012Z,18.50
2018-02-06T10:31:45.797Z,19.90
2018-02-06T10:34:16.564Z,14.10
2018-02-06T10:36:47.368Z,15.83
2018-02-06T10:39:18.129Z,14.23
2018-02-06T10:41:48.900Z,15.00
2018-02-06T10:44:19.640Z,13.17
2018-02-06T10:46:50.468Z,15.40
2018-02-06T10:49:21.260Z,17.27
2018-02-06T10:51:52.024Z,15.10
2018-02-06T10:54:22.836Z,14.00
2018-02-06T10:56:53.647Z,15.70
2018-02-06T10:59:24.402Z,13.83
2018-02-06T11:01:55.228Z,16.77
2018-02-06T11:04:26.003Z,21.07
2018-02-06T11:06:56.764Z,14.70
2018-02-06T11:09:27.528Z,14.93
2018-02-06T11:11:58.300Z,21.50
2018-02-06T11:14:29.059Z,16.60
2018-02-06T11:16:59.864Z,16.37
2018-02-06T11:19:30.634Z,18.23
2018-02-06T11:22:01.432Z,15.43
2018-02-06T11:24:32.238Z,16.00
2018-02-06T11:27:03.004Z,18.07
2018-02-06T11:29:33.756Z,18.37
2018-02-06T11:32:05.669Z,15.13
2018-02-06T11:34:36.421Z,16.20
2018-02-06T11:37:07.224Z,19.07
2018-02-06T11:39:37.996Z,21.03
2018-02-06T11:42:08.812Z,16.83
2018-02-06T11:44:39.686Z,14.37
2018-02-06T11:47:10.473Z,17.57
2018-02-06T11:49:41.284Z,16.93
2018-02-06T11:52:12.095Z,15.93
2018-02-06T11:54:42.862Z,20.43
2018-02-06T11:57:13.643Z,17.77
2018-02-06T11:59:44.424Z,16.30
2018-02-06T12:02:15.220Z,13.57
2018-02-06T12:04:46.040Z,19.30
2018-02-06T12:07:16.823Z,15.93
2018-02-06T12:09:47.576Z,15.60
2018-02-06T12:12:18.368Z,17.20
2018-02-06T12:14:49.166Z,17.20
2018-02-06T12:17:19.988Z,14.67
2018-02-06T12:19:50.765Z,18.90
2018-02-06T12:22:21.577Z,13.53
2018-02-06T12:24:52.342Z,16.53
2018-02-06T12:27:23.096Z,16.00
2018-02-06T12:29:53.828Z,19.40
2018-02-06T12:32:24.591Z,16.40
2018-02-06T12:34:55.357Z,14.03
2018-02-06T12:37:26.137Z,17.90
2018-02-06T12:39:56.883Z,15.10
2018-02-06T12:42:27.634Z,14.70
2018-02-06T12:44:58.377Z,18.57
2018-02-06T12:47:29.148Z,17.07
2018-02-06T12:49:59.900Z,15.50
2018-02-06T12:52:30.654Z,18.03
2018-02-06T12:55:01.409Z,18.30
2018-02-06T12:57:32.197Z,14.90
2018-02-06T13:00:02.976Z,15.87
2018-02-06T13:02:33.759Z,16.50
2018-02-06T13:05:04.519Z,20.37
2018-02-06T13:07:35.352Z,14.87
2018-02-06T13:10:06.125Z,18.00
2018-02-06T13:12:36.936Z,16.20
2018-02-06T13:15:07.696Z,15.50
2018-02-06T13:17:38.491Z,14.93
2018-02-06T13:20:09.264Z,16.37
2018-02-06T13:22:40.056Z,14.43
2018-02-06T13:25:10.811Z,17.43
2018-02-06T13:27:43.672Z,17.07
2018-02-06T13:30:14.437Z,14.87
2018-02-06T13:32:45.275Z,14.33
2018-02-06T13:35:16.069Z,15.67
2018-02-06T13:37:46.867Z,14.67
2018-02-06T13:40:17.642Z,17.93
2018-02-06T13:42:55.217Z,16.00
2018-02-06T13:45:25.976Z,15.38
2018-02-06T13:47:56.755Z,15.63
2018-02-06T13:50:27.531Z,16.80
2018-02-06T13:52:58.341Z,18.80
2018-02-06T13:55:29.101Z,17.93
2018-02-06T13:57:59.944Z,14.30
2018-02-06T14:00:30.696Z,18.40
2018-02-06T14:03:01.520Z,19.00
2018-02-06T14:05:32.300Z,14.23
2018-02-06T14:08:03.097Z,16.50
2018-02-06T14:10:33.936Z,19.00
2018-02-06T14:13:04.743Z,15.70
2018-02-06T14:15:35.594Z,16.93
2018-02-06T14:18:06.358Z,15.47
2018-02-06T14:20:37.136Z,17.40
2018-02-06T14:23:07.928Z,15.87
2018-02-06T14:25:38.711Z,15.80
2018-02-06T14:28:09.483Z,19.37
2018-02-06T14:30:40.249Z,18.83
2018-02-06T14:33:11.038Z,17.20
2018-02-06T14:35:41.817Z,18.00
2018-02-06T14:38:15.581Z,16.87
2018-02-06T14:40:46.365Z,19.40
2018-02-06T14:43:17.125Z,15.67
2018-02-06T14:45:47.908Z,21.50
2018-02-06T14:48:18.666Z,18.50
2018-02-06T14:50:49.487Z,17.10
2018-02-06T14:53:20.308Z,18.40
2018-02-06T14:55:51.092Z,18.87
2018-02-06T14:58:21.858Z,18.10
2018-02-06T15:00:52.663Z,20.10
2018-02-06T15:03:23.419Z,19.67
2018-02-06T15:05:54.212Z,16.37
2018-02-06T15:08:24.976Z,17.10
2018-02-06T15:10:55.735Z,17.50
2018-02-06T15:13:26.474Z,16.43
2018-02-06T15:15:57.222Z,16.70
2018-02-06T15:18:27.973Z,15.17
2018-02-06T15:20:58.711Z,16.17
2018-02-06T15:23:29.452Z,16.97
2018-02-06T15:26:00.316Z,18.33
2018-02-06T15:28:31.128Z,18.57
2018-02-06T15:31:01.885Z,15.80
2018-02-06T15:33:32.650Z,17.87
2018-02-06T15:36:03.455Z,17.47
2018-02-06T15:38:34.233Z,17.93
2018-02-06T15:41:05.013Z,14.20
2018-02-06T15:43:35.781Z,19.13
2018-02-06T15:46:06.568Z,17.80
2018-02-06T15:48:37.342Z,18.67
2018-02-06T15:51:08.122Z,19.23
2018-02-06T15:53:38.861Z,16.83
2018-02-06T15:56:09.660Z,19.27
2018-02-06T15:58:40.420Z,15.93
2018-02-06T16:01:12.269Z,17.50
2018-02-06T16:03:43.021Z,18.20
2018-02-06T16:06:13.823Z,17.33
2018-02-06T16:08:44.604Z,17.10
2018-02-06T16:11:15.355Z,18.20
2018-02-06T16:13:46.085Z,15.03
2018-02-06T16:16:16.896Z,18.10
2018-02-06T16:18:47.650Z,17.00
2018-02-06T16:21:18.416Z,21.77
2018-02-06T16:23:49.151Z,16.60
2018-02-06T16:26:19.944Z,19.23
2018-02-06T16:28:50.704Z,20.90
2018-02-06T16:31:21.515Z,18.20
2018-02-06T16:33:52.252Z,20.87
2018-02-06T16:36:23.012Z,22.50
2018-02-06T16:38:53.805Z,21.10
2018-02-06T16:41:24.598Z,21.73
2018-02-06T16:43:55.343Z,21.87
2018-02-06T16:46:26.120Z,26.70
2018-02-06T16:48:56.858Z,28.00
2018-02-06T16:51:27.654Z,25.80
2018-02-06T16:53:58.415Z,31.90
2018-02-06T16:56:29.209Z,25.40
2018-02-06T16:58:59.951Z,23.17
2018-02-06T17:01:30.736Z,25.03
2018-02-06T17:04:01.548Z,31.57
2018-02-06T17:06:32.324Z,26.80
2018-02-06T17:09:03.112Z,34.80
2018-02-06T17:11:33.894Z,26.93
2018-02-06T17:14:04.656Z,29.27
2018-02-06T17:16:35.425Z,30.73
2018-02-06T17:19:06.167Z,27.10
2018-02-06T17:21:36.985Z,28.87
2018-02-06T17:24:07.748Z,26.60
2018-02-06T17:26:38.535Z,26.80
2018-02-06T17:29:09.284Z,25.73
2018-02-06T17:31:40.084Z,28.20
2018-02-06T17:34:10.860Z,30.73
2018-02-06T17:36:41.628Z,35.37
2018-02-06T17:39:12.394Z,29.33
2018-02-06T17:41:44.240Z,29.57
2018-02-06T17:44:15.056Z,30.02
2018-02-06T17:46:45.899Z,30.40
2018-02-06T17:49:16.770Z,29.97
2018-02-06T17:51:47.555Z,28.43
2018-02-06T17:54:18.305Z,29.43
2018-02-06T17:56:49.079Z,30.73
2018-02-06T17:59:19.851Z,32.77
2018-02-06T18:01:50.632Z,33.17
2018-02-06T18:04:21.408Z,30.23
2018-02-06T18:06:52.220Z,32.23
2018-02-06T18:09:22.993Z,27.20
2018-02-06T18:11:53.785Z,30.07
2018-02-06T18:14:24.538Z,29.13
2018-02-06T18:16:55.350Z,32.83
2018-02-06T18:19:26.088Z,32.80
2018-02-06T18:21:56.894Z,27.77
2018-02-06T18:24:27.711Z,32.73
2018-02-06T18:26:58.478Z,31.50
2018-02-06T18:29:29.220Z,33.83
2018-02-06T18:31:59.974Z,34.67
2018-02-06T18:34:30.724Z,33.00
2018-02-06T18:37:01.520Z,28.07
2018-02-06T18:39:32.295Z,30.57
2018-02-06T18:42:03.040Z,29.73
2018-02-06T18:44:33.764Z,36.37
2018-02-06T18:47:04.567Z,31.27
2018-02-06T18:49:35.332Z,31.50
2018-02-06T18:52:06.089Z,27.10
2018-02-06T18:54:36.891Z,31.53
2018-02-06T18:57:07.679Z,28.30
2018-02-06T18:59:38.404Z,35.77
2018-02-06T19:02:09.180Z,31.67
2018-02-06T19:04:39.918Z,28.50
2018-02-06T19:07:10.715Z,33.10
2018-02-06T19:09:41.460Z,29.53
2018-02-06T19:12:12.213Z,28.33
2018-02-06T19:14:42.986Z,32.80
2018-02-06T19:17:13.748Z,30.70
2018-02-06T19:19:44.538Z,29.90
2018-02-06T19:22:15.317Z,31.53
2018-02-06T19:24:46.091Z,30.43
2018-02-06T19:27:16.928Z,26.83
2018-02-06T19:29:47.664Z,32.70
2018-02-06T19:32:18.436Z,31.20
2018-02-06T19:34:49.225Z,39.50
2018-02-06T19:37:20.101Z,31.10
2018-02-06T19:39:50.842Z,33.90
2018-02-06T19:42:21.639Z,32.33
2018-02-06T19:44:52.389Z,36.73
2018-02-06T19:47:23.155Z,29.63
2018-02-06T19:49:53.948Z,34.70
2018-02-06T19:52:24.786Z,33.93
2018-02-06T19:54:55.528Z,31.33
2018-02-06T19:57:26.332Z,31.07
2018-02-06T19:59:57.044Z,33.33
2018-02-06T20:02:27.846Z,30.60
2018-02-06T20:04:58.674Z,34.07
2018-02-06T20:07:29.572Z,36.63
2018-02-06T20:10:00.324Z,36.30
2018-02-06T20:12:31.175Z,31.87
2018-02-06T20:15:01.921Z,34.07
2018-02-06T20:17:32.772Z,35.80
2018-02-06T20:20:03.524Z,33.00
2018-02-06T20:22:34.322Z,34.53
2018-02-06T20:25:05.112Z,38.50
2018-02-06T20:27:35.931Z,33.60
2018-02-06T20:30:06.739Z,30.80
2018-02-06T20:32:37.482Z,36.17
2018-02-06T20:35:08.266Z,35.50
2018-02-06T20:37:39.095Z,37.83
2018-02-06T20:40:09.895Z,34.60
2018-02-06T20:42:40.674Z,30.13
2018-02-06T20:45:11.435Z,31.60
2018-02-06T20:47:42.188Z,34.17
2018-02-06T20:50:12.997Z,29.03
2018-02-06T20:52:43.856Z,31.43
2018-02-06T20:55:14.632Z,35.63
2018-02-06T20:57:45.386Z,40.53
2018-02-06T21:00:16.213Z,31.87
2018-02-06T21:02:46.965Z,34.03
2018-02-06T21:05:17.715Z,35.03
2018-02-06T21:07:48.519Z,34.33
2018-02-06T21:10:19.272Z,26.30
2018-02-06T21:12:50.025Z,37.37
2018-02-06T21:15:20.760Z,31.47
2018-02-06T21:17:51.544Z,42.20
2018-02-06T21:20:22.301Z,35.83
2018-02-06T21:22:53.056Z,35.23
2018-02-06T21:25:23.804Z,31.03
2018-02-06T21:27:54.625Z,34.50
2018-02-06T21:30:25.376Z,33.20
2018-02-06T21:32:56.152Z,38.87
2018-02-06T21:35:26.914Z,33.23
2018-02-06T21:37:57.729Z,34.03
2018-02-06T21:40:28.512Z,37.30
2018-02-06T21:42:59.252Z,36.80
2018-02-06T21:45:29.996Z,33.83
2018-02-06T21:48:00.800Z,37.93
2018-02-06T21:50:31.562Z,38.13
2018-02-06T21:53:02.352Z,36.87
2018-02-06T21:55:33.151Z,37.20
2018-02-06T21:58:03.974Z,35.03
2018-02-06T22:00:34.707Z,38.00
2018-02-06T22:03:05.495Z,37.90
2018-02-06T22:05:36.245Z,35.37
2018-02-06T22:08:07.066Z,35.57
2018-02-06T22:10:37.829Z,35.97
2018-02-06T22:13:08.651Z,33.17
2018-02-06T22:15:39.435Z,33.27
2018-02-06T22:18:10.241Z,33.63
2018-02-06T22:20:41.012Z,35.83
2018-02-06T22:23:11.821Z,33.27
2018-02-06T22:25:42.589Z,35.20
2018-02-06T22:28:13.347Z,33.03
2018-02-06T22:30:44.092Z,35.83
2018-02-06T22:33:14.855Z,38.37
2018-02-06T22:35:45.639Z,37.73
2018-02-06T22:38:16.404Z,36.07
2018-02-06T22:40:47.163Z,36.40
2018-02-06T22:43:20.756Z,34.90
2018-02-06T22:45:51.854Z,41.25
2018-02-06T22:48:22.632Z,33.90
2018-02-06T22:50:53.372Z,33.20
2018-02-06T22:53:24.128Z,35.57
2018-02-06T22:55:54.892Z,44.87
2018-02-06T22:58:25.674Z,35.63
2018-02-06T23:00:56.409Z,37.40
2018-02-06T23:03:27.177Z,37.77
2018-02-06T23:05:57.939Z,37.00
2018-02-06T23:08:28.704Z,39.10
2018-02-06T23:10:59.529Z,37.23
2018-02-06T23:13:30.321Z,39.80
2018-02-06T23:16:01.064Z,32.97
2018-02-06T23:18:31.847Z,36.80
2018-02-06T23:21:02.588Z,28.87
2018-02-06T23:23:33.336Z,36.60
2018-02-06T23:26:04.088Z,36.00
2018-02-06T23:28:35.120Z,38.20
2018-02-06T23:31:05.881Z,33.13
2018-02-06T23:33:36.644Z,38.50
2018-02-06T23:36:07.381Z,31.50
2018-02-06T23:38:38.144Z,36.03
2018-02-06T23:41:08.915Z,30.40
2018-02-06T23:43:39.725Z,32.70
2018-02-06T23:46:10.465Z,33.80
2018-02-06T23:48:41.334Z,36.53
2018-02-06T23:51:12.448Z,37.33
2018-02-06T23:53:43.282Z,34.45
2018-02-06T23:56:14.023Z,36.20
2018-02-06T23:58:44.764Z,39.33
